createdAt,value
2019-01-14T00:01:23.081Z,5.40
2019-01-14T00:03:52.125Z,5.40
2019-01-14T00:06:21.012Z,5.30
2019-01-14T00:08:50.040Z,5.30
2019-01-14T00:11:18.874Z,5.20
2019-01-14T00:13:47.751Z,5.30
2019-01-14T00:16:16.769Z,5.30
2019-01-14T00:18:45.901Z,5.30
2019-01-14T00:21:14.886Z,5.30
2019-01-14T00:23:43.769Z,5.30
2019-01-14T00:26:12.555Z,5.20
2019-01-14T00:28:41.405Z,5.10
2019-01-14T00:31:10.457Z,5.00
2019-01-14T00:33:39.351Z,5.00
2019-01-14T00:36:08.406Z,5.10
2019-01-14T00:38:37.366Z,5.20
2019-01-14T00:41:06.154Z,5.20
2019-01-14T00:43:35.136Z,5.30
2019-01-14T00:46:04.100Z,5.30
2019-01-14T00:48:33.106Z,5.40
2019-01-14T00:51:01.878Z,5.30
2019-01-14T00:53:30.700Z,5.30
2019-01-14T00:55:59.591Z,5.40
2019-01-14T00:58:28.431Z,5.50
2019-01-14T01:00:57.299Z,5.50
2019-01-14T01:03:26.219Z,5.50
2019-01-14T01:05:55.256Z,5.40
2019-01-14T01:08:24.225Z,5.30
2019-01-14T01:10:53.066Z,5.40
2019-01-14T01:13:21.984Z,5.40
2019-01-14T01:15:50.842Z,5.50
2019-01-14T01:18:19.753Z,5.40
2019-01-14T01:20:48.990Z,5.40
2019-01-14T01:23:17.870Z,5.40
2019-01-14T01:25:46.801Z,5.20
2019-01-14T01:28:15.802Z,5.20
2019-01-14T01:30:44.812Z,5.20
2019-01-14T01:33:13.773Z,5.10
2019-01-14T01:35:42.713Z,5.10
2019-01-14T01:38:11.578Z,5.00
2019-01-14T01:40:40.559Z,5.00
2019-01-14T01:43:09.452Z,5.00
2019-01-14T01:45:38.244Z,5.00
2019-01-14T01:48:07.184Z,4.90
2019-01-14T01:50:36.078Z,4.80
2019-01-14T01:53:05.042Z,4.90
2019-01-14T01:55:34.506Z,5.00
2019-01-14T01:58:03.380Z,5.10
2019-01-14T02:00:32.244Z,5.10
2019-01-14T02:03:01.125Z,5.20
2019-01-14T02:05:30.036Z,5.40
2019-01-14T02:07:59.574Z,5.30
2019-01-14T02:10:28.493Z,5.20
2019-01-14T02:12:57.446Z,5.20
2019-01-14T02:15:26.321Z,5.20
2019-01-14T02:17:55.134Z,5.20
2019-01-14T02:20:24.118Z,5.10
2019-01-14T02:22:52.923Z,5.10
2019-01-14T02:25:21.835Z,5.10
2019-01-14T02:27:50.703Z,5.10
2019-01-14T02:30:21.462Z,5.10
2019-01-14T02:32:50.489Z,5.20
2019-01-14T02:35:19.503Z,5.20
2019-01-14T02:37:48.517Z,5.20
2019-01-14T02:40:22.102Z,5.30
2019-01-14T02:42:51.067Z,5.30
2019-01-14T02:45:20.020Z,5.30
2019-01-14T02:47:48.973Z,5.30
2019-01-14T02:50:17.900Z,5.20
2019-01-14T02:52:46.884Z,5.20
2019-01-14T02:55:15.826Z,5.30
2019-01-14T02:57:44.824Z,5.40
2019-01-14T03:00:16.941Z,5.40
2019-01-14T03:02:46.082Z,5.30
2019-01-14T03:05:15.103Z,5.20
2019-01-14T03:07:43.968Z,5.20
2019-01-14T03:10:12.815Z,5.30
2019-01-14T03:12:41.861Z,5.30
2019-01-14T03:15:10.755Z,5.40
2019-01-14T03:17:39.647Z,5.30
2019-01-14T03:20:10.309Z,5.20
2019-01-14T03:22:39.292Z,5.20
2019-01-14T03:25:09.014Z,5.10
2019-01-14T03:27:37.902Z,5.00
2019-01-14T03:30:08.576Z,5.10
2019-01-14T03:32:37.327Z,5.10
2019-01-14T03:35:06.863Z,5.10
2019-01-14T03:37:35.733Z,5.00
2019-01-14T03:40:06.628Z,5.00
2019-01-14T03:42:35.677Z,4.90
2019-01-14T03:45:04.973Z,4.80
2019-01-14T03:47:33.957Z,4.70
2019-01-14T03:50:02.937Z,4.70
2019-01-14T03:52:31.869Z,4.70
2019-01-14T03:55:00.717Z,4.60
2019-01-14T03:57:29.637Z,4.70
2019-01-14T03:59:59.422Z,4.70
2019-01-14T04:02:28.254Z,4.60
2019-01-14T04:04:57.212Z,4.60
2019-01-14T04:07:26.057Z,4.60
2019-01-14T04:09:54.863Z,4.60
2019-01-14T04:12:23.790Z,4.60
2019-01-14T04:14:52.720Z,4.60
2019-01-14T04:17:21.747Z,4.70
2019-01-14T04:19:50.785Z,4.80
2019-01-14T04:22:19.659Z,4.90
2019-01-14T04:24:48.973Z,4.90
2019-01-14T04:27:17.957Z,4.80
2019-01-14T04:29:46.790Z,4.90
2019-01-14T04:32:15.644Z,5.00
2019-01-14T04:34:44.510Z,5.00
2019-01-14T04:37:13.289Z,5.00
2019-01-14T04:39:42.167Z,4.90
2019-01-14T04:42:11.179Z,4.90
2019-01-14T04:44:40.093Z,4.90
2019-01-14T04:47:09.069Z,4.80
2019-01-14T04:49:37.863Z,4.80
2019-01-14T04:52:06.828Z,4.90
2019-01-14T04:54:35.705Z,4.90
2019-01-14T04:57:04.587Z,4.80
2019-01-14T04:59:33.514Z,4.80
2019-01-14T05:02:02.404Z,4.70
2019-01-14T05:04:31.285Z,4.70
2019-01-14T05:07:00.114Z,4.70
2019-01-14T05:09:29.021Z,4.70
2019-01-14T05:11:58.001Z,4.70
2019-01-14T05:14:26.856Z,4.60
2019-01-14T05:16:55.784Z,4.70
2019-01-14T05:19:24.646Z,4.70
2019-01-14T05:21:53.520Z,4.70
2019-01-14T05:24:22.366Z,4.80
2019-01-14T05:26:51.253Z,4.80
2019-01-14T05:29:20.232Z,4.80
2019-01-14T05:31:49.190Z,4.80
2019-01-14T05:34:18.092Z,4.80
2019-01-14T05:36:46.969Z,4.90
2019-01-14T05:39:15.849Z,4.80
2019-01-14T05:41:44.761Z,4.80
2019-01-14T05:44:13.723Z,4.90
2019-01-14T05:46:42.524Z,4.90
2019-01-14T05:49:11.305Z,5.00
2019-01-14T05:51:40.238Z,5.00
2019-01-14T05:54:09.019Z,4.90
2019-01-14T05:56:37.912Z,4.80
2019-01-14T05:59:06.824Z,4.80
2019-01-14T06:01:35.689Z,4.70
2019-01-14T06:04:04.622Z,4.70
2019-01-14T06:06:33.500Z,4.70
2019-01-14T06:09:02.511Z,4.80
2019-01-14T06:11:31.380Z,4.80
2019-01-14T06:14:00.315Z,4.80
2019-01-14T06:16:29.186Z,4.80
2019-01-14T06:18:58.023Z,4.90
2019-01-14T06:21:26.934Z,5.00
2019-01-14T06:23:55.809Z,5.00
2019-01-14T06:26:24.719Z,5.00
2019-01-14T06:28:53.671Z,5.00
2019-01-14T06:31:22.477Z,5.00
2019-01-14T06:33:51.373Z,5.00
2019-01-14T06:36:20.247Z,5.10
2019-01-14T06:38:49.156Z,5.10
2019-01-14T06:41:18.091Z,5.10
2019-01-14T06:43:47.051Z,5.20
2019-01-14T06:46:15.897Z,5.20
2019-01-14T06:48:44.804Z,5.30
2019-01-14T06:51:13.711Z,5.30
2019-01-14T06:53:42.599Z,5.20
2019-01-14T06:56:11.583Z,5.20
2019-01-14T06:58:40.479Z,5.30
2019-01-14T07:01:09.428Z,5.20
2019-01-14T07:03:38.467Z,5.20
2019-01-14T07:06:07.365Z,5.30
2019-01-14T07:08:36.213Z,5.30
2019-01-14T07:11:05.496Z,5.40
2019-01-14T07:13:34.375Z,5.40
2019-01-14T07:16:03.346Z,5.40
2019-01-14T07:18:32.323Z,5.50
2019-01-14T07:21:01.138Z,5.40
2019-01-14T07:23:29.916Z,5.30
2019-01-14T07:25:58.732Z,5.20
2019-01-14T07:28:27.695Z,5.30
2019-01-14T07:30:56.568Z,5.30
2019-01-14T07:33:25.518Z,5.30
2019-01-14T07:35:54.369Z,5.30
2019-01-14T07:38:23.229Z,5.30
2019-01-14T07:40:52.118Z,5.20
2019-01-14T07:43:21.002Z,5.20
2019-01-14T07:45:49.809Z,5.20
2019-01-14T07:48:18.785Z,5.20
2019-01-14T07:50:47.728Z,5.20
2019-01-14T07:53:16.712Z,5.30
2019-01-14T07:55:45.634Z,5.30
2019-01-14T07:58:14.604Z,5.30
2019-01-14T08:00:43.481Z,5.20
2019-01-14T08:03:12.406Z,5.20
2019-01-14T08:05:41.276Z,5.10
2019-01-14T08:08:13.943Z,5.10
2019-01-14T08:10:40.679Z,5.20
2019-01-14T08:13:09.553Z,5.30
2019-01-14T08:15:38.391Z,5.30
2019-01-14T08:18:07.315Z,5.20
2019-01-14T08:20:36.073Z,5.20
2019-01-14T08:23:05.057Z,5.20
2019-01-14T08:25:33.989Z,5.20
2019-01-14T08:28:02.900Z,5.20
2019-01-14T08:30:31.709Z,5.10
2019-01-14T08:33:00.665Z,5.20
2019-01-14T08:35:29.546Z,5.30
2019-01-14T08:37:59.230Z,5.20
2019-01-14T08:40:28.226Z,5.10
2019-01-14T08:42:57.275Z,5.20
2019-01-14T08:45:26.172Z,5.30
2019-01-14T08:47:54.958Z,5.30
2019-01-14T08:50:23.958Z,5.40
2019-01-14T08:52:52.896Z,5.40
2019-01-14T08:55:21.935Z,5.50
2019-01-14T08:57:54.769Z,5.50
2019-01-14T09:00:22.404Z,5.50
2019-01-14T09:02:51.312Z,5.50
2019-01-14T09:05:20.206Z,5.50
2019-01-14T09:07:49.069Z,5.50
2019-01-14T09:10:27.095Z,5.50
2019-01-14T09:12:55.991Z,5.50
2019-01-14T09:15:24.909Z,5.40
2019-01-14T09:17:53.967Z,5.40
2019-01-14T09:20:24.312Z,5.40
2019-01-14T09:22:53.098Z,5.50
2019-01-14T09:25:21.990Z,5.50
2019-01-14T09:27:50.864Z,5.40
2019-01-14T09:30:21.766Z,5.40
2019-01-14T09:32:50.590Z,5.40
2019-01-14T09:35:19.551Z,5.30
2019-01-14T09:37:48.419Z,5.40
2019-01-14T09:40:19.095Z,5.40
2019-01-14T09:42:48.149Z,5.40
2019-01-14T09:45:17.026Z,5.50
2019-01-14T09:47:45.913Z,5.50
2019-01-14T09:50:15.200Z,5.50
2019-01-14T09:52:44.081Z,5.50
2019-01-14T09:55:15.108Z,5.50
2019-01-14T09:57:44.112Z,5.50
2019-01-14T10:00:13.049Z,5.50
2019-01-14T10:02:42.174Z,5.40
2019-01-14T10:05:11.931Z,5.50
2019-01-14T10:07:40.853Z,5.50
2019-01-14T10:10:12.427Z,5.50
2019-01-14T10:12:41.248Z,5.60
2019-01-14T10:15:12.901Z,5.80
2019-01-14T10:17:42.070Z,5.90
2019-01-14T10:20:11.385Z,6.00
2019-01-14T10:22:40.229Z,6.10
2019-01-14T10:25:09.170Z,6.10
2019-01-14T10:27:38.053Z,6.00
2019-01-14T10:30:10.181Z,6.00
2019-01-14T10:32:39.047Z,5.90
2019-01-14T10:35:08.472Z,5.80
2019-01-14T10:37:37.302Z,5.80
2019-01-14T10:40:07.537Z,5.70
2019-01-14T10:42:36.572Z,5.60
2019-01-14T10:45:08.292Z,5.60
2019-01-14T10:47:37.163Z,5.70
2019-01-14T10:50:07.400Z,5.70
2019-01-14T10:52:36.359Z,5.70
2019-01-14T10:55:12.329Z,5.70
2019-01-14T10:57:37.231Z,5.80
2019-01-14T11:00:09.935Z,5.80
2019-01-14T11:02:40.170Z,5.90
2019-01-14T11:05:10.014Z,6.10
2019-01-14T11:07:39.025Z,6.20
2019-01-14T11:10:08.766Z,6.20
2019-01-14T11:12:37.590Z,6.30
2019-01-14T11:15:09.337Z,6.40
2019-01-14T11:17:38.209Z,6.50
2019-01-14T11:20:09.473Z,6.60
2019-01-14T11:22:38.425Z,6.50
2019-01-14T11:25:07.337Z,6.50
2019-01-14T11:27:36.182Z,6.60
2019-01-14T11:30:07.701Z,6.70
2019-01-14T11:32:36.613Z,5.90
2019-01-14T11:35:05.935Z,5.20
2019-01-14T11:37:34.899Z,4.70
2019-01-14T11:40:07.622Z,4.30
2019-01-14T11:42:36.477Z,4.10
2019-01-14T11:45:07.392Z,3.90
2019-01-14T11:47:36.283Z,3.90
2019-01-14T11:50:07.469Z,3.80
2019-01-14T11:52:36.303Z,3.90
2019-01-14T11:55:06.371Z,4.00
2019-01-14T11:57:35.319Z,4.00
2019-01-14T12:00:06.976Z,4.00
2019-01-14T12:02:39.576Z,4.10
2019-01-14T12:05:06.821Z,4.20
2019-01-14T12:07:35.803Z,4.30
2019-01-14T12:10:05.085Z,4.40
2019-01-14T12:12:34.070Z,4.40
2019-01-14T12:15:02.859Z,4.60
2019-01-14T12:17:31.764Z,4.80
2019-01-14T12:20:00.759Z,4.80
2019-01-14T12:22:29.612Z,5.00
2019-01-14T12:24:58.618Z,5.10
2019-01-14T12:27:27.689Z,5.30
2019-01-14T12:29:56.505Z,5.50
2019-01-14T12:32:25.412Z,5.50
2019-01-14T12:34:54.214Z,5.50
2019-01-14T12:37:23.204Z,5.40
2019-01-14T12:39:52.165Z,5.30
2019-01-14T12:42:21.138Z,5.20
2019-01-14T12:44:50.053Z,5.20
2019-01-14T12:47:18.975Z,5.20
2019-01-14T12:49:47.840Z,5.20
2019-01-14T12:52:16.731Z,5.10
2019-01-14T12:54:45.635Z,5.00
2019-01-14T12:57:14.595Z,4.80
2019-01-14T12:59:43.407Z,4.90
2019-01-14T13:02:12.197Z,4.90
2019-01-14T13:04:41.028Z,4.90
2019-01-14T13:07:09.790Z,4.80
2019-01-14T13:09:38.676Z,4.90
2019-01-14T13:12:07.567Z,5.00
2019-01-14T13:14:36.526Z,5.00
2019-01-14T13:17:05.512Z,5.20
2019-01-14T13:19:34.379Z,5.20
2019-01-14T13:22:03.566Z,5.20
2019-01-14T13:24:32.621Z,5.30
2019-01-14T13:27:01.561Z,5.30
2019-01-14T13:29:30.425Z,5.30
2019-01-14T13:31:59.303Z,5.30
2019-01-14T13:34:28.430Z,5.40
2019-01-14T13:36:57.224Z,5.40
2019-01-14T13:39:26.094Z,5.60
2019-01-14T13:41:55.087Z,5.60
2019-01-14T13:44:23.869Z,5.70
2019-01-14T13:46:52.701Z,5.70
2019-01-14T13:49:21.771Z,5.80
2019-01-14T13:51:50.602Z,5.80
2019-01-14T13:54:19.524Z,5.80
2019-01-14T13:56:48.467Z,5.80
2019-01-14T13:59:17.363Z,5.70
2019-01-14T14:01:46.231Z,5.70
2019-01-14T14:04:15.231Z,5.60
2019-01-14T14:06:44.224Z,5.70
2019-01-14T14:09:13.096Z,5.70
2019-01-14T14:11:41.916Z,5.80
2019-01-14T14:14:10.783Z,5.80
2019-01-14T14:16:39.577Z,5.90
2019-01-14T14:19:08.511Z,5.90
2019-01-14T14:21:37.662Z,6.00
2019-01-14T14:24:06.711Z,6.10
2019-01-14T14:26:35.611Z,6.10
2019-01-14T14:29:04.481Z,6.00
2019-01-14T14:31:33.462Z,6.00
2019-01-14T14:34:02.611Z,5.80
2019-01-14T14:36:31.869Z,5.70
2019-01-14T14:39:01.034Z,5.60
2019-01-14T14:41:30.013Z,5.50
2019-01-14T14:43:58.881Z,5.50
2019-01-14T14:46:27.712Z,5.30
2019-01-14T14:48:56.670Z,5.20
2019-01-14T14:51:25.546Z,5.10
2019-01-14T14:53:54.657Z,5.10
2019-01-14T14:56:23.643Z,5.00
2019-01-14T14:58:52.650Z,5.00
2019-01-14T15:01:21.546Z,4.90
2019-01-14T15:03:50.446Z,4.90
2019-01-14T15:06:19.359Z,4.80
2019-01-14T15:08:48.139Z,4.80
2019-01-14T15:11:17.063Z,4.70
2019-01-14T15:13:45.927Z,4.70
2019-01-14T15:16:14.795Z,4.70
2019-01-14T15:18:43.703Z,4.70
2019-01-14T15:21:12.608Z,4.70
2019-01-14T15:23:41.488Z,4.70
2019-01-14T15:26:10.429Z,4.70
2019-01-14T15:28:39.385Z,4.80
2019-01-14T15:31:08.373Z,4.70
2019-01-14T15:33:37.185Z,4.70
2019-01-14T15:36:06.193Z,4.70
2019-01-14T15:38:35.177Z,4.70
2019-01-14T15:41:04.049Z,4.70
2019-01-14T15:43:32.944Z,4.60
2019-01-14T15:46:01.741Z,4.50
2019-01-14T15:48:30.651Z,4.50
2019-01-14T15:50:59.487Z,4.50
2019-01-14T15:53:28.397Z,4.50
2019-01-14T15:55:57.295Z,4.40
2019-01-14T15:58:26.190Z,4.30
2019-01-14T16:00:55.036Z,4.40
2019-01-14T16:03:24.027Z,4.30
2019-01-14T16:05:53.002Z,4.30
2019-01-14T16:08:22.021Z,4.30
2019-01-14T16:10:50.821Z,4.20
2019-01-14T16:13:19.715Z,4.10
2019-01-14T16:15:48.513Z,4.00
2019-01-14T16:18:17.511Z,4.00
2019-01-14T16:20:46.495Z,4.00
2019-01-14T16:23:15.402Z,3.80
2019-01-14T16:25:44.207Z,3.80
2019-01-14T16:28:13.128Z,3.70
2019-01-14T16:30:41.971Z,3.70
2019-01-14T16:33:10.976Z,3.50
2019-01-14T16:35:39.953Z,3.50
2019-01-14T16:38:08.847Z,3.60
2019-01-14T16:40:37.715Z,3.60
2019-01-14T16:43:06.753Z,3.50
2019-01-14T16:45:35.719Z,3.50
2019-01-14T16:48:04.574Z,3.50
2019-01-14T16:50:33.607Z,3.50
2019-01-14T16:53:02.600Z,3.50
2019-01-14T16:55:52.831Z,3.60
2019-01-14T16:58:21.806Z,3.60
2019-01-14T17:00:50.826Z,3.60
2019-01-14T17:03:19.772Z,3.60
2019-01-14T17:05:48.779Z,3.60
2019-01-14T17:08:17.706Z,3.70
2019-01-14T17:10:46.666Z,3.80
2019-01-14T17:13:15.424Z,3.80
2019-01-14T17:15:44.342Z,3.80
2019-01-14T17:18:13.233Z,3.80
2019-01-14T17:20:42.231Z,3.70
2019-01-14T17:23:11.133Z,3.70
2019-01-14T17:25:40.369Z,3.70
2019-01-14T17:28:09.437Z,3.60
2019-01-14T17:30:38.292Z,3.60
2019-01-14T17:33:07.288Z,3.40
2019-01-14T17:35:36.243Z,3.30
2019-01-14T17:38:05.117Z,3.20
2019-01-14T17:40:34.115Z,3.10
2019-01-14T17:43:03.312Z,3.10
2019-01-14T17:45:32.182Z,2.90
2019-01-14T17:48:01.332Z,2.90
2019-01-14T17:50:30.260Z,2.80
2019-01-14T17:52:59.261Z,2.80
2019-01-14T17:55:28.266Z,2.70
2019-01-14T17:57:57.238Z,2.60
2019-01-14T18:00:26.638Z,2.40
2019-01-14T18:02:55.657Z,2.50
2019-01-14T18:05:24.566Z,2.50
2019-01-14T18:07:53.439Z,2.50
2019-01-14T18:10:22.400Z,2.40
2019-01-14T18:12:51.381Z,2.40
2019-01-14T18:15:20.228Z,2.40
2019-01-14T18:17:49.144Z,2.40
2019-01-14T18:20:19.525Z,2.40
2019-01-14T18:22:48.418Z,2.40
2019-01-14T18:25:17.527Z,2.40
2019-01-14T18:27:46.381Z,2.40
2019-01-14T18:30:17.516Z,2.50
2019-01-14T18:32:46.281Z,2.50
2019-01-14T18:35:16.965Z,2.50
2019-01-14T18:37:46.162Z,2.50
2019-01-14T18:40:16.250Z,2.70
2019-01-14T18:42:45.487Z,2.70
2019-01-14T18:45:15.329Z,2.80
2019-01-14T18:47:44.382Z,2.90
2019-01-14T18:50:15.677Z,2.90
2019-01-14T18:52:44.650Z,2.90
2019-01-14T18:55:13.890Z,2.90
2019-01-14T18:57:42.904Z,2.90
2019-01-14T19:00:15.091Z,2.90
2019-01-14T19:02:44.147Z,2.90
2019-01-14T19:05:13.107Z,2.90
2019-01-14T19:07:42.120Z,3.00
2019-01-14T19:10:11.212Z,3.00
2019-01-14T19:12:40.085Z,2.90
2019-01-14T19:15:11.369Z,2.90
2019-01-14T19:17:40.315Z,2.80
2019-01-14T19:20:15.727Z,2.60
2019-01-14T19:22:44.611Z,2.60
2019-01-14T19:25:13.793Z,2.40
2019-01-14T19:27:42.701Z,2.30
2019-01-14T19:30:13.126Z,2.20
2019-01-14T19:32:42.043Z,2.20
2019-01-14T19:35:10.994Z,2.10
2019-01-14T19:37:39.904Z,2.00
2019-01-14T19:40:11.576Z,1.90
2019-01-14T19:42:40.391Z,1.90
2019-01-14T19:45:09.539Z,1.90
2019-01-14T19:47:38.533Z,1.80
2019-01-14T19:50:10.839Z,1.70
2019-01-14T19:52:39.828Z,1.70
2019-01-14T19:55:08.827Z,1.60
2019-01-14T19:57:37.822Z,1.70
2019-01-14T20:00:08.480Z,1.60
2019-01-14T20:02:37.383Z,1.50
2019-01-14T20:05:06.936Z,1.40
2019-01-14T20:07:35.829Z,1.40
2019-01-14T20:10:06.371Z,1.40
2019-01-14T20:12:35.215Z,1.40
2019-01-14T20:15:04.333Z,1.50
2019-01-14T20:17:33.246Z,1.50
2019-01-14T20:20:02.270Z,1.50
2019-01-14T20:22:31.152Z,1.50
2019-01-14T20:25:00.019Z,1.40
2019-01-14T20:27:28.898Z,1.40
2019-01-14T20:29:57.902Z,1.40
2019-01-14T20:32:26.835Z,1.50
2019-01-14T20:34:55.762Z,1.50
2019-01-14T20:37:24.652Z,1.60
2019-01-14T20:39:53.431Z,1.60
2019-01-14T20:42:22.259Z,1.60
2019-01-14T20:44:51.257Z,1.60
2019-01-14T20:47:20.194Z,1.60
2019-01-14T20:49:49.178Z,1.60
2019-01-14T20:52:18.078Z,1.60
2019-01-14T20:54:46.875Z,1.60
2019-01-14T20:57:15.814Z,1.60
2019-01-14T20:59:44.695Z,1.60
2019-01-14T21:02:13.595Z,1.60
2019-01-14T21:04:42.514Z,1.60
2019-01-14T21:07:11.557Z,1.60
2019-01-14T21:09:40.484Z,1.60
2019-01-14T21:12:09.497Z,1.60
2019-01-14T21:14:38.455Z,1.70
2019-01-14T21:17:07.359Z,1.80
2019-01-14T21:19:36.284Z,1.80
2019-01-14T21:22:05.257Z,1.90
2019-01-14T21:24:34.236Z,2.10
2019-01-14T21:27:03.151Z,2.10
2019-01-14T21:29:31.978Z,2.20
2019-01-14T21:32:00.876Z,2.20
2019-01-14T21:34:29.825Z,2.20
2019-01-14T21:36:58.813Z,2.20
2019-01-14T21:39:28.779Z,2.20
2019-01-14T21:41:57.780Z,2.20
2019-01-14T21:44:26.823Z,2.20
2019-01-14T21:46:55.790Z,2.20
2019-01-14T21:49:24.802Z,2.20
2019-01-14T21:51:53.827Z,2.10
2019-01-14T21:54:22.828Z,2.10
2019-01-14T21:56:51.876Z,2.10
2019-01-14T21:59:20.982Z,2.10
2019-01-14T22:01:49.969Z,2.20
2019-01-14T22:04:18.930Z,2.10
2019-01-14T22:06:47.915Z,2.10
2019-01-14T22:09:16.880Z,2.10
2019-01-14T22:11:45.823Z,2.30
2019-01-14T22:14:14.817Z,2.30
2019-01-14T22:16:43.700Z,2.30
2019-01-14T22:19:12.701Z,2.30
2019-01-14T22:21:41.705Z,2.20
2019-01-14T22:24:10.720Z,2.20
2019-01-14T22:26:39.727Z,2.10
2019-01-14T22:29:08.715Z,2.10
2019-01-14T22:31:37.605Z,2.00
2019-01-14T22:34:06.660Z,2.00
2019-01-14T22:36:35.630Z,1.90
2019-01-14T22:39:07.174Z,1.90
2019-01-14T22:41:36.076Z,1.80
2019-01-14T22:44:05.088Z,1.80
2019-01-14T22:46:34.008Z,1.80
2019-01-14T22:49:03.116Z,1.70
2019-01-14T22:51:32.031Z,1.70
2019-01-14T22:54:00.815Z,1.70
2019-01-14T22:56:29.726Z,1.60
2019-01-14T22:58:58.641Z,1.70
2019-01-14T23:01:42.638Z,1.60
2019-01-14T23:04:11.633Z,1.60
2019-01-14T23:06:59.733Z,1.60
2019-01-14T23:09:28.723Z,1.70
2019-01-14T23:11:57.629Z,1.60
2019-01-14T23:14:26.601Z,1.70
2019-01-14T23:16:55.508Z,1.60
2019-01-14T23:19:24.483Z,1.60
2019-01-14T23:21:53.316Z,1.60
2019-01-14T23:24:22.289Z,1.60
2019-01-14T23:26:51.290Z,1.60
2019-01-14T23:29:20.138Z,1.60
2019-01-14T23:31:49.123Z,1.60
2019-01-14T23:34:18.036Z,1.60
2019-01-14T23:36:46.911Z,1.60
2019-01-14T23:39:15.911Z,1.70
2019-01-14T23:41:44.705Z,1.70
2019-01-14T23:44:13.482Z,1.70
2019-01-14T23:46:42.528Z,1.70
2019-01-14T23:49:11.419Z,1.80
2019-01-14T23:51:40.413Z,1.80
2019-01-14T23:54:09.330Z,1.80
2019-01-14T23:56:38.277Z,1.80
2019-01-14T23:59:07.173Z,1.80
